Time;durP1;ratioP1;P1;durP2;ratioP2;P2;SDS_P1;SDS_P2;PMS_P1;PMS_P2;Temp;Humidity;BMP_temperature;BMP_pressure;BME280_temperature;BME280_humidity;BME280_pressure;Samples;Min_cycle;Max_cycle;Signal;HPM_P1;HPM_P2
2023/05/15 00:00:05;;;;;;;5.47;4.65;;;13.80;99.90;;;;;;5036433;28;20186;-84
2023/05/15 00:02:33;;;;;;;5.82;4.97;;;13.70;99.90;;;;;;5036453;28;20163;-84
2023/05/15 00:04:59;;;;;;;5.03;4.43;;;13.80;99.90;;;;;;5036392;28;20181;-84
2023/05/15 00:07:25;;;;;;;7.45;4.28;;;13.70;99.90;;;;;;5036375;28;20159;-85
2023/05/15 00:09:51;;;;;;;7.72;4.38;;;13.70;99.90;;;;;;5034490;28;20339;-84
2023/05/15 00:12:18;;;;;;;5.32;4.60;;;13.60;99.90;;;;;;5035995;28;20202;-84
2023/05/15 00:14:43;;;;;;;5.65;4.72;;;13.60;99.90;;;;;;5036219;28;20190;-84
2023/05/15 00:17:09;;;;;;;7.75;5.20;;;13.40;99.90;;;;;;5035050;28;20186;-83
2023/05/15 00:19:35;;;;;;;6.38;4.65;;;13.40;99.90;;;;;;5035664;28;20202;-84
2023/05/15 00:22:00;;;;;;;6.13;4.95;;;13.30;99.90;;;;;;5034737;28;20174;-84
2023/05/15 00:24:26;;;;;;;8.65;4.60;;;13.30;99.90;;;;;;5035988;28;20179;-85
2023/05/15 00:26:52;;;;;;;5.68;4.57;;;13.20;99.90;;;;;;5036011;28;20229;-84
2023/05/15 00:29:17;;;;;;;5.22;4.72;;;13.10;99.90;;;;;;5035878;28;20215;-82
2023/05/15 00:31:43;;;;;;;7.70;4.68;;;13.10;99.90;;;;;;5036038;28;20185;-84
2023/05/15 00:34:09;;;;;;;6.13;4.68;;;13.10;99.90;;;;;;5035785;28;20548;-85
2023/05/15 00:39:14;;;;;;;5.50;4.90;;;13.00;99.90;;;;;;5393642;22;20238;-82
2023/05/15 00:41:40;;;;;;;7.82;5.13;;;12.90;99.90;;;;;;5035782;28;20206;-83
2023/05/15 00:44:07;;;;;;;5.55;5.00;;;12.80;99.90;;;;;;5035570;28;20172;-83
2023/05/15 00:46:35;;;;;;;6.32;4.95;;;12.70;99.90;;;;;;5035620;28;20186;-83
2023/05/15 00:49:04;;;;;;;5.22;4.70;;;12.70;99.90;;;;;;5033910;28;20267;-82
2023/05/15 00:51:29;;;;;;;5.38;4.70;;;12.70;99.90;;;;;;5034153;28;20273;-83
2023/05/15 00:53:56;;;;;;;5.65;5.15;;;12.70;99.90;;;;;;5035091;28;20332;-82
2023/05/15 00:56:23;;;;;;;6.10;4.78;;;12.60;99.90;;;;;;5035487;28;20183;-82
2023/05/15 00:58:50;;;;;;;6.53;5.10;;;12.50;99.90;;;;;;5035411;28;20501;-83
2023/05/15 01:01:16;;;;;;;5.95;4.72;;;12.50;99.90;;;;;;5033846;28;20187;-85
2023/05/15 01:03:43;;;;;;;10.23;5.10;;;12.40;99.90;;;;;;5035118;28;20182;-85
2023/05/15 01:06:09;;;;;;;8.85;4.88;;;12.30;99.90;;;;;;5035253;28;20170;-83
2023/05/15 01:08:43;;;;;;;6.57;5.38;;;12.30;99.90;;;;;;5039656;28;20205;-83
2023/05/15 01:11:10;;;;;;;7.30;5.55;;;12.30;99.90;;;;;;5054857;28;20174;-83
2023/05/15 01:13:36;;;;;;;10.25;5.55;;;12.20;99.90;;;;;;5054852;28;20170;-83
2023/05/15 01:16:02;;;;;;;9.82;5.80;;;12.20;99.90;;;;;;5055025;28;20523;-83
2023/05/15 01:18:31;;;;;;;6.45;5.53;;;12.10;99.90;;;;;;5054410;28;20174;-83
2023/05/15 01:21:34;;;;;;;5.85;5.25;;;12.10;99.90;;;;;;5054772;28;20198;-84
2023/05/15 01:24:42;;;;;;;6.18;5.38;;;12.00;99.90;;;;;;5054408;28;20261;-84
2023/05/15 01:27:42;;;;;;;11.15;5.40;;;12.00;99.90;;;;;;5054810;28;20154;-84
2023/05/15 01:30:17;;;;;;;6.78;6.05;;;12.00;99.90;;;;;;5053506;28;20233;-81
2023/05/15 01:32:54;;;;;;;7.68;5.88;;;11.90;99.90;;;;;;5054514;28;20165;-82
2023/05/15 01:35:26;;;;;;;6.80;5.45;;;11.90;99.90;;;;;;5054752;28;20197;-81
2023/05/15 01:38:06;;;;;;;5.88;5.35;;;11.90;99.90;;;;;;5052237;28;20174;-82
2023/05/15 01:40:31;;;;;;;6.07;5.47;;;11.80;99.90;;;;;;5034566;28;20167;-83
2023/05/15 01:43:04;;;;;;;7.05;5.70;;;11.60;99.90;;;;;;5033147;28;20632;-82
2023/05/15 01:45:32;;;;;;;6.40;5.80;;;11.60;99.90;;;;;;5033339;28;20524;-83
2023/05/15 01:47:59;;;;;;;6.63;5.93;;;11.50;99.90;;;;;;5033254;28;20178;-84
2023/05/15 01:50:26;;;;;;;5.72;5.22;;;11.50;99.90;;;;;;5034232;28;20640;-83
2023/05/15 01:52:57;;;;;;;9.57;5.30;;;11.50;99.90;;;;;;5034347;28;20221;-84
2023/05/15 01:55:25;;;;;;;9.43;5.85;;;11.50;99.90;;;;;;5034315;28;20162;-83
2023/05/15 01:57:52;;;;;;;11.57;5.85;;;11.60;99.90;;;;;;5033065;28;20182;-85
2023/05/15 02:00:18;;;;;;;7.40;6.25;;;11.50;99.90;;;;;;5034293;28;20175;-84
2023/05/15 02:02:45;;;;;;;8.77;6.25;;;11.40;99.90;;;;;;5034214;28;20475;-84
2023/05/15 02:05:12;;;;;;;8.00;6.35;;;11.30;99.90;;;;;;5034331;28;20171;-85
2023/05/15 02:07:44;;;;;;;7.75;5.78;;;11.30;99.90;;;;;;5033085;28;20272;-83
2023/05/15 02:10:11;;;;;;;8.02;6.43;;;11.30;99.90;;;;;;5053664;28;20662;-85
2023/05/15 02:12:41;;;;;;;7.88;5.95;;;11.30;99.90;;;;;;5054012;28;20166;-82
2023/05/15 02:15:12;;;;;;;8.10;6.10;;;11.20;99.90;;;;;;5053807;28;20266;-83
2023/05/15 02:17:37;;;;;;;7.35;5.85;;;11.20;99.90;;;;;;5054234;28;20508;-85
2023/05/15 02:20:07;;;;;;;7.10;6.25;;;11.20;99.90;;;;;;5034674;28;20186;-85
2023/05/15 02:22:33;;;;;;;10.02;6.00;;;11.20;99.90;;;;;;5033581;28;20163;-83
2023/05/15 02:24:58;;;;;;;9.23;5.68;;;11.30;99.90;;;;;;5033608;28;20183;-84
2023/05/15 02:27:27;;;;;;;8.18;5.82;;;11.30;99.90;;;;;;5032499;28;20190;-84
2023/05/15 02:30:12;;;;;;;6.80;5.78;;;11.40;99.90;;;;;;5032376;28;20214;-84
2023/05/15 02:33:02;;;;;;;7.15;5.65;;;11.30;99.90;;;;;;5033889;28;20190;-85
2023/05/15 02:35:30;;;;;;;7.38;6.07;;;11.10;99.90;;;;;;5033938;28;20171;-84
2023/05/15 02:37:59;;;;;;;7.68;6.05;;;10.90;99.90;;;;;;5034988;28;20225;-84
2023/05/15 02:40:27;;;;;;;11.05;6.28;;;10.70;99.90;;;;;;5053488;28;20209;-84
2023/05/15 02:42:54;;;;;;;6.50;5.85;;;10.70;99.90;;;;;;5052476;28;20260;-85
2023/05/15 02:45:22;;;;;;;9.18;6.70;;;10.80;99.90;;;;;;5053732;28;20170;-83
2023/05/15 02:47:50;;;;;;;10.43;6.90;;;10.80;99.90;;;;;;5053628;28;20181;-82
2023/05/15 02:50:17;;;;;;;6.90;6.20;;;10.90;99.90;;;;;;5053674;28;20580;-85
2023/05/15 02:52:43;;;;;;;7.10;6.05;;;10.80;99.90;;;;;;5053391;28;20496;-85
2023/05/15 02:55:09;;;;;;;9.23;6.07;;;10.90;99.90;;;;;;5053409;28;20253;-85
2023/05/15 02:57:35;;;;;;;7.15;5.65;;;10.80;99.90;;;;;;5053718;28;20223;-85
2023/05/15 03:00:01;;;;;;;7.13;6.43;;;10.80;99.90;;;;;;5053598;28;20205;-85
2023/05/15 03:02:27;;;;;;;10.50;5.85;;;10.70;99.90;;;;;;5053370;28;20166;-85
2023/05/15 03:04:53;;;;;;;9.95;5.90;;;10.80;99.90;;;;;;5052288;28;20186;-85
2023/05/15 03:07:19;;;;;;;6.18;5.60;;;10.70;99.90;;;;;;5053587;28;20176;-84
2023/05/15 03:09:44;;;;;;;7.75;6.15;;;10.80;99.90;;;;;;5052916;28;20224;-83
2023/05/15 03:12:10;;;;;;;10.57;6.07;;;10.80;99.90;;;;;;5053253;28;20597;-82
2023/05/15 03:14:36;;;;;;;6.43;5.68;;;10.70;99.90;;;;;;5053413;28;20189;-81
2023/05/15 03:17:02;;;;;;;8.68;5.90;;;10.70;99.90;;;;;;5053225;28;20242;-84
2023/05/15 03:19:28;;;;;;;6.50;5.53;;;10.80;99.90;;;;;;5051374;28;20182;-82
2023/05/15 03:21:53;;;;;;;7.57;5.85;;;10.80;99.90;;;;;;5053097;28;20177;-82
2023/05/15 03:24:20;;;;;;;6.43;5.80;;;10.90;99.90;;;;;;5052906;28;20167;-82
2023/05/15 03:26:45;;;;;;;7.35;5.90;;;10.90;99.90;;;;;;5052081;28;20201;-82
2023/05/15 03:29:12;;;;;;;8.45;5.72;;;10.90;99.90;;;;;;5052973;28;20660;-84
2023/05/15 03:31:37;;;;;;;10.90;5.38;;;10.90;99.90;;;;;;5055261;28;20509;-83
2023/05/15 03:34:03;;;;;;;8.98;6.72;;;10.90;99.90;;;;;;5056712;28;20598;-82
2023/05/15 03:36:29;;;;;;;6.53;5.63;;;10.90;99.90;;;;;;5056877;28;20173;-82
2023/05/15 03:38:55;;;;;;;8.27;6.03;;;10.90;99.90;;;;;;5046665;28;20241;-81
2023/05/15 03:41:21;;;;;;;9.77;6.22;;;10.90;99.90;;;;;;5035488;28;20189;-82
2023/05/15 03:43:46;;;;;;;9.90;6.47;;;11.00;99.90;;;;;;5037055;28;20481;-83
2023/05/15 03:46:12;;;;;;;7.93;6.63;;;10.90;99.90;;;;;;5036749;28;20277;-82
2023/05/15 03:48:38;;;;;;;7.13;5.90;;;11.00;99.90;;;;;;5036628;28;20281;-82
2023/05/15 03:51:03;;;;;;;7.07;6.38;;;11.00;99.90;;;;;;5036495;28;20182;-82
2023/05/15 03:53:29;;;;;;;7.25;6.00;;;11.00;99.90;;;;;;5035007;28;20182;-82
2023/05/15 03:55:55;;;;;;;9.05;6.18;;;11.10;99.90;;;;;;5036711;28;20182;-82
2023/05/15 03:58:21;;;;;;;11.27;6.50;;;11.10;99.90;;;;;;5036494;28;20178;-82
2023/05/15 04:00:47;;;;;;;9.20;6.13;;;11.10;99.90;;;;;;5036390;28;20257;-84
2023/05/15 04:03:13;;;;;;;8.13;6.78;;;11.10;99.90;;;;;;5034850;28;20175;-82
2023/05/15 04:05:39;;;;;;;8.73;7.22;;;11.10;99.90;;;;;;5036332;28;20646;-82
2023/05/15 04:08:05;;;;;;;8.73;6.90;;;11.10;99.90;;;;;;5039209;28;20301;-83
2023/05/15 04:10:32;;;;;;;7.13;6.40;;;11.10;99.90;;;;;;5054537;28;20264;-84
2023/05/15 04:12:58;;;;;;;7.32;6.00;;;11.10;99.90;;;;;;5056122;28;20193;-83
2023/05/15 04:15:27;;;;;;;10.90;6.20;;;11.10;99.90;;;;;;5056109;28;20632;-84
2023/05/15 04:17:53;;;;;;;13.15;7.28;;;11.20;99.90;;;;;;5055950;28;20624;-84
2023/05/15 04:20:23;;;;;;;8.75;6.55;;;11.30;99.90;;;;;;5054725;28;20539;-82
2023/05/15 04:22:50;;;;;;;7.20;6.50;;;11.30;99.90;;;;;;5054733;28;20178;-84
2023/05/15 04:25:16;;;;;;;7.30;6.45;;;11.20;99.90;;;;;;5055809;28;20174;-84
2023/05/15 04:27:43;;;;;;;8.02;6.97;;;11.20;99.90;;;;;;5054676;28;20220;-83
2023/05/15 04:30:11;;;;;;;7.80;6.82;;;11.20;99.90;;;;;;5055629;28;20198;-82
2023/05/15 04:32:40;;;;;;;11.63;7.03;;;11.10;99.90;;;;;;5040680;28;20194;-84
2023/05/15 04:35:12;;;;;;;7.32;6.63;;;11.10;99.90;;;;;;5035978;28;20552;-82
2023/05/15 04:37:38;;;;;;;10.60;6.70;;;11.10;99.90;;;;;;5034511;28;20316;-84
2023/05/15 04:40:06;;;;;;;8.52;7.22;;;11.20;99.90;;;;;;5053130;28;20202;-81
2023/05/15 04:42:32;;;;;;;10.88;7.43;;;11.30;99.90;;;;;;5054332;28;20170;-83
2023/05/15 04:44:58;;;;;;;10.68;7.22;;;11.30;99.90;;;;;;5055622;28;20170;-82
2023/05/15 04:47:24;;;;;;;7.97;7.18;;;11.40;99.90;;;;;;5055576;28;20620;-82
2023/05/15 04:49:50;;;;;;;10.10;7.60;;;11.40;99.90;;;;;;5055449;28;20220;-82
2023/05/15 04:52:16;;;;;;;8.55;7.03;;;11.40;99.90;;;;;;5055324;28;20257;-82
2023/05/15 04:54:42;;;;;;;9.60;7.07;;;11.50;99.90;;;;;;5055233;28;20174;-84
2023/05/15 04:57:08;;;;;;;8.85;7.22;;;11.60;99.90;;;;;;5054092;28;20497;-84
2023/05/15 04:59:34;;;;;;;10.45;7.22;;;11.60;99.90;;;;;;5055093;28;20210;-82
2023/05/15 05:02:01;;;;;;;7.80;6.88;;;11.70;99.90;;;;;;5053843;28;20186;-83
2023/05/15 05:04:27;;;;;;;7.55;6.75;;;11.60;99.90;;;;;;5055188;28;20167;-84
2023/05/15 05:06:52;;;;;;;8.80;6.78;;;11.70;99.90;;;;;;5055214;28;20240;-82
2023/05/15 05:09:19;;;;;;;12.32;6.82;;;11.80;99.90;;;;;;5041717;28;20217;-83
2023/05/15 05:11:46;;;;;;;7.53;6.75;;;11.90;99.90;;;;;;5035025;28;20171;-81
2023/05/15 05:14:14;;;;;;;8.35;7.47;;;12.00;99.90;;;;;;5033609;28;20186;-84
2023/05/15 05:16:43;;;;;;;13.52;7.03;;;12.10;99.90;;;;;;5035031;28;20201;-81
2023/05/15 05:19:08;;;;;;;9.57;7.30;;;12.10;99.90;;;;;;5035037;28;20174;-84
2023/05/15 05:21:34;;;;;;;9.15;6.82;;;12.20;99.90;;;;;;5033650;28;20340;-83
2023/05/15 05:24:00;;;;;;;10.13;7.05;;;12.20;99.90;;;;;;5034570;28;20637;-83
2023/05/15 05:26:26;;;;;;;12.98;6.65;;;12.30;99.90;;;;;;5034908;28;20193;-82
2023/05/15 05:28:52;;;;;;;8.18;6.60;;;12.50;99.90;;;;;;5034691;28;20209;-84
2023/05/15 05:31:19;;;;;;;11.80;7.43;;;12.60;99.90;;;;;;5034794;28;20217;-83
2023/05/15 05:33:44;;;;;;;8.48;7.57;;;12.60;99.90;;;;;;5034776;28;20170;-82
2023/05/15 05:36:10;;;;;;;8.82;7.80;;;12.60;99.90;;;;;;5033378;28;20186;-82
2023/05/15 05:38:36;;;;;;;10.07;7.30;;;12.60;99.90;;;;;;5041439;28;20220;-84
2023/05/15 05:41:02;;;;;;;10.48;6.80;;;12.60;99.90;;;;;;5054354;28;20223;-84
2023/05/15 05:43:28;;;;;;;8.80;7.28;;;12.70;99.90;;;;;;5054339;28;20158;-83
2023/05/15 05:45:54;;;;;;;9.82;7.00;;;12.70;99.90;;;;;;5041074;28;20185;-82
2023/05/15 05:48:20;;;;;;;8.15;6.97;;;12.70;99.90;;;;;;5034537;28;20166;-82
2023/05/15 05:50:45;;;;;;;7.85;7.03;;;12.80;99.90;;;;;;5034254;28;20182;-82
2023/05/15 05:53:11;;;;;;;10.00;7.15;;;12.80;99.90;;;;;;5034075;28;20175;-82
2023/05/15 05:55:37;;;;;;;11.20;7.30;;;12.80;99.90;;;;;;5033233;28;20620;-85
2023/05/15 05:58:03;;;;;;;9.18;7.28;;;12.70;99.90;;;;;;5034419;28;20561;-85
2023/05/15 06:00:29;;;;;;;9.02;7.28;;;12.90;99.90;;;;;;5034501;28;20236;-85
2023/05/15 06:02:58;;;;;;;8.65;6.75;;;12.90;99.90;;;;;;5034314;28;20645;-85
2023/05/15 06:05:25;;;;;;;9.63;7.18;;;13.00;99.90;;;;;;5034367;28;20229;-85
2023/05/15 06:07:51;;;;;;;7.97;7.03;;;13.10;99.90;;;;;;5032970;28;20269;-84
2023/05/15 06:10:18;;;;;;;10.88;7.18;;;13.10;99.90;;;;;;5033721;28;20649;-85
2023/05/15 06:12:46;;;;;;;8.93;7.82;;;13.20;99.90;;;;;;5034064;28;20237;-85
2023/05/15 06:15:12;;;;;;;9.13;7.47;;;13.30;99.90;;;;;;5034176;28;20211;-85
2023/05/15 06:17:38;;;;;;;9.05;7.18;;;13.40;99.90;;;;;;5032912;28;20182;-84
2023/05/15 06:20:08;;;;;;;9.52;7.75;;;13.60;99.90;;;;;;5034005;28;20174;-84
2023/05/15 06:22:35;;;;;;;9.23;7.18;;;13.70;99.90;;;;;;5033715;28;20553;-83
2023/05/15 06:25:03;;;;;;;8.55;6.72;;;13.70;99.90;;;;;;5032155;28;20516;-85
2023/05/15 06:27:28;;;;;;;13.20;7.15;;;13.80;99.90;;;;;;5033542;28;20167;-83
2023/05/15 06:29:54;;;;;;;9.50;6.55;;;13.80;99.90;;;;;;5032601;28;20214;-85
2023/05/15 06:32:20;;;;;;;9.60;6.95;;;13.80;99.90;;;;;;5033876;28;20636;-84
2023/05/15 06:34:46;;;;;;;8.10;6.78;;;13.90;99.90;;;;;;5032437;28;20520;-83
2023/05/15 06:37:11;;;;;;;8.27;6.88;;;13.90;99.90;;;;;;5032805;28;20626;-83
2023/05/15 06:39:37;;;;;;;8.68;6.30;;;13.90;99.90;;;;;;5033195;28;20245;-84
2023/05/15 06:42:03;;;;;;;7.20;6.50;;;14.00;99.90;;;;;;5033570;28;20183;-83
2023/05/15 06:44:30;;;;;;;10.20;6.28;;;14.10;99.90;;;;;;5033701;28;20167;-83
2023/05/15 06:46:56;;;;;;;14.63;6.93;;;14.20;99.90;;;;;;5032464;28;20186;-83
2023/05/15 06:49:23;;;;;;;9.30;6.45;;;14.30;99.90;;;;;;5033342;28;20543;-82
2023/05/15 06:51:49;;;;;;;8.80;6.82;;;14.50;99.90;;;;;;5033667;28;20200;-82
2023/05/15 06:54:14;;;;;;;10.60;7.00;;;14.60;99.90;;;;;;5032972;28;20857;-82
2023/05/15 06:56:40;;;;;;;8.45;6.72;;;14.90;99.90;;;;;;5033000;28;20182;-84
2023/05/15 06:59:06;;;;;;;11.73;6.72;;;14.90;99.90;;;;;;5032290;28;20261;-84
2023/05/15 07:01:31;;;;;;;16.73;6.00;;;14.90;99.90;;;;;;5032216;28;20236;-84
2023/05/15 07:03:57;;;;;;;9.07;5.95;;;14.80;99.90;;;;;;5032118;28;20174;-85
2023/05/15 07:06:24;;;;;;;10.18;6.45;;;14.80;99.90;;;;;;5035549;28;20635;-84
2023/05/15 07:08:50;;;;;;;8.02;6.55;;;15.10;99.90;;;;;;5037634;28;20210;-83
2023/05/15 07:11:16;;;;;;;9.43;6.25;;;15.40;99.90;;;;;;5035963;28;20567;-83
2023/05/15 07:13:41;;;;;;;8.35;5.72;;;15.60;99.90;;;;;;5037572;28;20170;-84
2023/05/15 07:16:07;;;;;;;7.57;5.90;;;16.00;99.90;;;;;;5036022;28;20278;-85
2023/05/15 07:18:33;;;;;;;7.18;5.70;;;16.10;99.90;;;;;;5037094;28;20174;-84
2023/05/15 07:20:58;;;;;;;10.93;6.10;;;16.20;99.90;;;;;;5037180;28;20232;-84
2023/05/15 07:23:24;;;;;;;13.07;5.70;;;16.40;99.90;;;;;;5035678;28;20178;-84
2023/05/15 07:25:54;;;;;;;8.27;5.68;;;16.40;99.90;;;;;;5036971;28;20568;-83
2023/05/15 07:28:20;;;;;;;7.43;5.60;;;16.40;99.90;;;;;;5035988;28;20178;-84
2023/05/15 07:30:46;;;;;;;8.50;5.88;;;16.40;99.90;;;;;;5037111;28;20236;-84
2023/05/15 07:33:12;;;;;;;9.10;5.80;;;16.40;99.90;;;;;;5036857;28;20609;-85
2023/05/15 07:35:37;;;;;;;6.75;5.80;;;16.50;99.90;;;;;;5037031;28;20497;-84
2023/05/15 07:38:03;;;;;;;7.55;5.80;;;16.40;99.90;;;;;;5036663;28;20696;-84
2023/05/15 07:40:29;;;;;;;7.47;5.80;;;16.50;99.90;;;;;;5036654;28;20167;-84
2023/05/15 07:42:55;;;;;;;9.18;5.57;;;16.50;99.90;;;;;;5035280;28;20183;-83
2023/05/15 07:45:21;;;;;;;6.95;6.22;;;16.50;99.90;;;;;;5036777;28;20633;-84
2023/05/15 07:47:48;;;;;;;8.55;5.47;;;16.50;99.90;;;;;;5036815;28;20167;-84
2023/05/15 07:50:14;;;;;;;7.68;6.00;;;16.40;99.90;;;;;;5036736;28;20293;-85
2023/05/15 07:52:41;;;;;;;8.05;5.95;;;16.40;99.90;;;;;;5036554;28;20178;-85
2023/05/15 07:55:07;;;;;;;7.50;5.82;;;16.40;99.90;;;;;;5036516;28;20170;-84
2023/05/15 07:57:33;;;;;;;7.50;5.65;;;16.50;99.90;;;;;;5036660;28;20621;-84
2023/05/15 07:59:58;;;;;;;7.75;5.50;;;16.50;99.90;;;;;;5035213;28;20218;-84
2023/05/15 08:02:24;;;;;;;8.00;6.15;;;16.50;99.90;;;;;;5035141;28;20946;-84
2023/05/15 08:04:50;;;;;;;9.25;6.40;;;16.70;99.90;;;;;;5036429;28;20170;-85
2023/05/15 08:07:15;;;;;;;10.68;5.95;;;16.80;99.90;;;;;;5036514;28;20175;-85
2023/05/15 08:09:41;;;;;;;8.07;5.93;;;16.80;99.90;;;;;;5036051;28;20206;-85
2023/05/15 08:12:20;;;;;;;8.30;6.15;;;17.00;99.90;;;;;;5036311;28;20171;-84
2023/05/15 08:14:50;;;;;;;6.88;5.30;;;17.10;99.90;;;;;;5036201;28;20257;-85
2023/05/15 08:17:16;;;;;;;6.85;5.32;;;17.30;99.90;;;;;;5034163;28;20185;-84
2023/05/15 08:19:42;;;;;;;8.50;5.20;;;17.30;99.90;;;;;;5034730;28;20187;-85
2023/05/15 08:22:08;;;;;;;6.28;5.15;;;17.40;99.90;;;;;;5036123;28;20576;-83
2023/05/15 08:24:33;;;;;;;6.65;5.15;;;17.40;99.90;;;;;;5035992;28;20221;-84
2023/05/15 08:26:59;;;;;;;7.40;5.15;;;17.40;99.90;;;;;;5034839;28;20171;-84
2023/05/15 08:29:25;;;;;;;5.90;5.30;;;17.40;99.90;;;;;;5034522;28;20203;-85
2023/05/15 08:31:51;;;;;;;6.93;5.05;;;17.50;99.90;;;;;;5035926;28;20561;-84
2023/05/15 08:34:17;;;;;;;6.63;5.32;;;17.70;99.90;;;;;;5035859;28;20170;-86
2023/05/15 08:36:43;;;;;;;7.03;4.93;;;17.80;99.90;;;;;;5036046;28;20190;-85
2023/05/15 08:39:09;;;;;;;7.43;4.80;;;17.90;99.90;;;;;;5034673;28;20237;-84
2023/05/15 08:41:46;;;;;;;5.93;4.45;;;18.00;99.90;;;;;;5035507;28;20179;-84
2023/05/15 08:44:13;;;;;;;6.38;4.80;;;18.10;99.90;;;;;;5035773;28;20158;-84
2023/05/15 08:46:39;;;;;;;8.18;5.00;;;18.10;99.90;;;;;;5035006;28;20182;-85
2023/05/15 08:49:25;;;;;;;5.03;4.53;;;18.20;99.90;;;;;;5035331;28;20217;-85
2023/05/15 08:51:52;;;;;;;5.60;4.60;;;18.30;99.90;;;;;;5035618;28;20163;-84
2023/05/15 08:54:18;;;;;;;6.68;5.05;;;18.30;99.90;;;;;;5035278;28;20182;-82
2023/05/15 08:56:44;;;;;;;7.78;4.63;;;18.40;99.90;;;;;;5035482;28;20189;-84
2023/05/15 08:59:10;;;;;;;13.00;5.20;;;18.50;99.90;;;;;;5035217;28;20171;-84
2023/05/15 09:01:36;;;;;;;8.43;4.53;;;18.60;99.90;;;;;;5035328;28;20192;-83
2023/05/15 09:04:03;;;;;;;5.45;4.10;;;18.70;99.90;;;;;;5035121;28;20228;-85
2023/05/15 09:06:29;;;;;;;5.72;4.20;;;18.70;99.90;;;;;;5035311;28;20166;-84
2023/05/15 09:08:56;;;;;;;8.80;4.30;;;18.90;99.90;;;;;;5035097;28;20206;-84
2023/05/15 09:24:51;;;;;;;4.72;3.42;;;19.40;98.70;;;;;;5035338;28;20241;-83
2023/05/15 09:27:19;;;;;;;5.07;3.35;;;19.60;99.40;;;;;;5035020;28;20158;-83
2023/05/15 09:29:45;;;;;;;7.13;2.78;;;19.70;97.00;;;;;;5034553;28;20305;-84
2023/05/15 09:32:12;;;;;;;6.32;3.28;;;19.90;96.70;;;;;;5034819;28;20175;-83
2023/05/15 09:34:40;;;;;;;5.57;3.00;;;20.00;95.10;;;;;;5034420;28;20261;-84
2023/05/15 09:37:09;;;;;;;7.68;3.08;;;20.00;96.70;;;;;;5034740;28;20178;-82
2023/05/15 09:39:42;;;;;;;4.07;2.97;;;20.10;96.10;;;;;;5034518;28;20222;-83
2023/05/15 09:42:10;;;;;;;4.13;2.40;;;20.30;96.60;;;;;;5034682;28;20174;-82
2023/05/15 09:44:43;;;;;;;5.00;2.97;;;20.50;94.40;;;;;;5033289;28;20185;-84
2023/05/15 09:47:10;;;;;;;5.22;2.88;;;20.70;95.10;;;;;;5034779;28;20212;-84
2023/05/15 09:49:36;;;;;;;3.72;2.50;;;20.80;92.90;;;;;;5032961;28;20207;-84
2023/05/15 09:52:02;;;;;;;6.07;2.70;;;20.70;92.00;;;;;;5034407;28;20174;-85
2023/05/15 09:54:29;;;;;;;5.10;2.78;;;20.80;91.40;;;;;;5034468;28;20181;-83
2023/05/15 09:56:56;;;;;;;6.05;2.88;;;20.70;92.10;;;;;;5034413;28;20159;-83
2023/05/15 09:59:21;;;;;;;5.57;2.80;;;20.80;91.10;;;;;;5034412;28;20498;-84
2023/05/15 10:01:50;;;;;;;4.00;3.08;;;20.90;91.00;;;;;;5034491;28;20181;-81
2023/05/15 10:04:16;;;;;;;5.20;3.05;;;20.90;91.40;;;;;;5034158;28;20174;-84
2023/05/15 10:06:45;;;;;;;4.40;2.95;;;21.00;90.60;;;;;;5034277;28;20585;-81
2023/05/15 10:09:12;;;;;;;5.50;4.10;;;21.00;91.00;;;;;;5016535;28;20272;-83
2023/05/15 10:11:40;;;;;;;4.75;2.92;;;21.10;91.10;;;;;;5033947;28;20173;-81
2023/05/15 10:14:08;;;;;;;6.95;4.45;;;21.20;90.10;;;;;;5033903;28;20257;-84
2023/05/15 10:16:35;;;;;;;3.50;2.80;;;21.20;90.30;;;;;;5033850;28;20655;-81
2023/05/15 10:19:06;;;;;;;2.95;2.50;;;21.30;90.10;;;;;;5033724;28;20163;-81
2023/05/15 10:21:34;;;;;;;5.10;2.55;;;21.30;91.00;;;;;;5033933;28;20175;-81
2023/05/15 10:24:01;;;;;;;5.38;2.60;;;21.40;90.30;;;;;;5033606;28;20206;-82
2023/05/15 10:26:37;;;;;;;6.80;2.67;;;21.40;87.60;;;;;;5032642;28;20196;-81
2023/05/15 10:29:10;;;;;;;4.43;2.30;;;21.60;86.20;;;;;;5032425;28;20305;-80
2023/05/15 10:31:36;;;;;;;5.35;2.63;;;21.70;85.40;;;;;;5033803;28;20181;-84
2023/05/15 10:34:05;;;;;;;4.85;2.50;;;21.90;88.80;;;;;;5033362;28;20170;-82
2023/05/15 10:36:32;;;;;;;3.38;2.60;;;22.20;88.10;;;;;;5033575;28;20162;-83
2023/05/15 10:39:00;;;;;;;3.92;2.20;;;22.30;83.40;;;;;;5033398;28;20643;-80
2023/05/15 10:41:28;;;;;;;4.35;2.33;;;22.30;81.50;;;;;;5031657;28;20174;-83
2023/05/15 10:43:56;;;;;;;4.90;2.53;;;22.50;87.50;;;;;;5032249;28;20625;-81
2023/05/15 10:46:23;;;;;;;4.68;3.00;;;22.40;80.40;;;;;;5033596;28;20628;-83
2023/05/15 10:48:50;;;;;;;5.43;2.80;;;22.00;82.50;;;;;;5033482;28;20205;-82
2023/05/15 10:51:18;;;;;;;4.30;2.60;;;21.80;85.00;;;;;;5033239;28;20516;-84
2023/05/15 10:53:44;;;;;;;4.55;2.70;;;21.50;84.20;;;;;;5033423;28;20261;-81
2023/05/15 10:56:15;;;;;;;5.28;2.13;;;21.60;86.70;;;;;;5032207;28;20182;-81
2023/05/15 10:58:48;;;;;;;3.42;2.60;;;21.50;84.60;;;;;;5033460;28;20300;-83
2023/05/15 11:01:31;;;;;;;3.42;2.53;;;21.20;85.30;;;;;;5033435;28;20614;-83
2023/05/15 11:04:11;;;;;;;3.47;1.98;;;20.90;84.80;;;;;;5032437;28;20193;-81
2023/05/15 11:06:38;;;;;;;5.47;2.70;;;20.50;86.30;;;;;;5033414;28;20324;-82
2023/05/15 11:09:23;;;;;;;3.72;2.40;;;20.40;85.00;;;;;;5033363;28;20202;-81
2023/05/15 11:11:59;;;;;;;4.72;2.30;;;20.20;87.30;;;;;;5033300;28;20233;-81
2023/05/15 11:14:25;;;;;;;4.55;2.50;;;20.10;89.00;;;;;;5033326;28;20212;-82
2023/05/15 11:16:54;;;;;;;11.23;2.72;;;20.00;90.10;;;;;;5033343;28;20554;-82
2023/05/15 11:19:34;;;;;;;7.40;2.60;;;19.90;87.20;;;;;;5033165;28;20497;-82
2023/05/15 11:22:14;;;;;;;14.90;2.88;;;19.80;87.60;;;;;;5021594;28;20229;-82
2023/05/15 11:24:50;;;;;;;4.97;2.42;;;19.70;90.40;;;;;;5033267;28;20182;-83
2023/05/15 11:27:18;;;;;;;5.80;2.63;;;19.60;88.10;;;;;;5033514;28;20198;-83
2023/05/15 11:30:03;;;;;;;3.72;2.40;;;19.60;87.40;;;;;;5033181;28;20598;-82
2023/05/15 11:32:45;;;;;;;5.68;2.42;;;19.60;88.20;;;;;;5033175;28;20228;-81
2023/05/15 11:35:12;;;;;;;5.72;2.13;;;19.60;88.60;;;;;;5031573;28;20182;-83
2023/05/15 11:37:44;;;;;;;4.28;2.40;;;19.60;88.70;;;;;;5031788;28;20178;-81
2023/05/15 11:40:17;;;;;;;6.32;2.33;;;19.60;90.20;;;;;;5033167;28;20198;-81
2023/05/15 11:43:03;;;;;;;4.18;2.25;;;19.60;89.60;;;;;;5031804;28;20192;-82
2023/05/15 11:45:31;;;;;;;5.20;2.40;;;19.70;90.20;;;;;;5031763;28;20190;-82
2023/05/15 11:48:01;;;;;;;3.13;2.08;;;19.70;89.60;;;;;;5033237;28;20190;-85
2023/05/15 11:50:28;;;;;;;2.20;2.00;;;19.70;86.80;;;;;;5032840;28;20217;-85
2023/05/15 11:52:55;;;;;;;4.95;2.50;;;19.80;90.30;;;;;;5035614;28;20257;-83
2023/05/15 11:55:22;;;;;;;2.72;2.15;;;19.80;86.50;;;;;;5036839;28;20174;-83
2023/05/15 11:57:48;;;;;;;3.30;2.15;;;19.90;84.60;;;;;;5036156;28;20178;-81
2023/05/15 12:00:14;;;;;;;3.53;2.00;;;19.90;87.10;;;;;;5036533;28;20218;-83
2023/05/15 12:02:40;;;;;;;5.28;2.30;;;19.90;87.00;;;;;;5035064;28;20178;-83
2023/05/15 12:05:07;;;;;;;7.95;2.25;;;19.80;85.20;;;;;;5035046;28;20631;-83
2023/05/15 12:07:43;;;;;;;3.40;2.50;;;19.80;87.20;;;;;;5036634;28;20619;-82
2023/05/15 12:10:10;;;;;;;3.80;2.53;;;19.80;88.20;;;;;;5036226;28;20656;-86
2023/05/15 12:12:45;;;;;;;5.72;2.33;;;19.80;88.80;;;;;;5036394;28;20320;-84
2023/05/15 12:15:13;;;;;;;5.72;2.80;;;19.80;89.40;;;;;;5036264;28;20182;-85
2023/05/15 12:17:39;;;;;;;4.20;2.63;;;19.70;90.40;;;;;;5036512;28;20268;-86
2023/05/15 12:20:11;;;;;;;3.90;2.50;;;19.70;90.20;;;;;;5034811;28;20178;-87
2023/05/15 12:22:43;;;;;;;5.25;2.80;;;19.70;91.80;;;;;;5036230;28;20264;-83
2023/05/15 12:25:11;;;;;;;4.55;2.78;;;19.70;91.60;;;;;;5036353;28;20189;-84
2023/05/15 12:27:38;;;;;;;9.35;3.22;;;19.70;91.90;;;;;;5036155;28;20158;-84
2023/05/15 12:30:05;;;;;;;4.78;3.03;;;19.70;93.40;;;;;;5035955;28;20555;-84
2023/05/15 12:32:32;;;;;;;7.07;3.03;;;19.70;91.70;;;;;;5035991;28;20173;-85
2023/05/15 12:34:58;;;;;;;4.93;3.20;;;19.70;91.30;;;;;;5035913;28;20616;-86
2023/05/15 12:37:24;;;;;;;5.43;3.22;;;19.70;91.40;;;;;;5036097;28;20198;-86
2023/05/15 12:39:55;;;;;;;7.43;2.78;;;19.70;91.50;;;;;;5035660;28;20547;-83
2023/05/15 12:42:21;;;;;;;5.80;2.63;;;19.60;91.00;;;;;;5035853;28;20181;-86
2023/05/15 12:44:52;;;;;;;3.15;2.50;;;19.60;90.00;;;;;;5036041;28;20179;-85
2023/05/15 12:47:25;;;;;;;5.13;3.10;;;19.60;90.80;;;;;;5035755;28;20221;-87
2023/05/15 12:49:57;;;;;;;5.68;2.80;;;19.60;90.20;;;;;;5035460;28;20201;-86
2023/05/15 12:52:26;;;;;;;3.70;2.60;;;19.60;90.40;;;;;;5035641;28;20171;-83
2023/05/15 12:54:52;;;;;;;3.90;2.53;;;19.60;89.90;;;;;;5035673;28;20170;-86
2023/05/15 12:57:19;;;;;;;4.20;2.90;;;19.70;90.30;;;;;;5035739;28;20177;-86
2023/05/15 12:59:44;;;;;;;5.60;2.45;;;19.70;89.70;;;;;;5035635;28;20171;-87
2023/05/15 13:02:12;;;;;;;4.00;2.45;;;19.70;90.50;;;;;;5035469;28;20519;-86
2023/05/15 13:04:39;;;;;;;5.82;2.63;;;19.80;90.00;;;;;;5034676;28;20206;-86